Terminal Aerodrome Forecast
Issued by NWS Mobile, AL

Home | Current Version | Previous Version | Text Only | Print | Product List | Glossary On
Versions: 1 2 3 4 5 6 7 8 9 10 11 12 13 14 15 16 17 18 19 20 21 22 23 24 25 26 27
000
FTUS44 KMOB 012300
TAFMOB
TAF
KMOB 012320Z 0200/0224 20008KT P6SM SCT010 BKN120
      TEMPO 0200/0202 3SM SHRA BR BKN010
     FM020600 26010KT 4SM BR OVC007
      TEMPO 0209/0212 2SM TSRA BKN005CB
     FM021300 34013KT P6SM BKN090=

USA.gov is the U.S. government's official web portal to all federal, state and local government web resources and services.